Time;durP1;ratioP1;P1;durP2;ratioP2;P2;SDS_P1;SDS_P2;PMS_P1;PMS_P2;Temp;Humidity;BMP_temperature;BMP_pressure;BME280_temperature;BME280_humidity;BME280_pressure;Samples;Min_cycle;Max_cycle;Signal;HPM_P1;HPM_P2
2023/08/01 00:01:51;;;;;;;1.98;1.08;;;20.60;73.40;;;;;;10328247;28;20025;-53
2023/08/01 00:06:52;;;;;;;1.52;0.90;;;20.50;73.50;;;;;;10340697;28;20028;-53
2023/08/01 00:11:52;;;;;;;2.25;1.20;;;20.60;73.50;;;;;;10345360;28;20417;-51
2023/08/01 00:16:54;;;;;;;13.73;1.45;;;20.60;73.40;;;;;;10358260;28;20430;-54
2023/08/01 00:21:54;;;;;;;1.55;0.93;;;20.60;73.50;;;;;;10370968;28;20022;-53
2023/08/01 00:26:55;;;;;;;1.30;1.05;;;20.50;73.40;;;;;;10370588;28;20054;-53
2023/08/01 00:31:56;;;;;;;1.52;0.80;;;20.50;73.40;;;;;;10340065;28;20377;-54
2023/08/01 00:36:58;;;;;;;1.48;1.10;;;20.50;73.50;;;;;;10329817;28;20069;-53
2023/08/01 00:41:59;;;;;;;2.25;1.15;;;20.50;73.50;;;;;;10329994;28;20502;-54
2023/08/01 00:47:00;;;;;;;1.27;0.80;;;20.60;73.50;;;;;;10364024;28;20022;-53
2023/08/01 00:52:01;;;;;;;2.35;1.35;;;20.50;73.40;;;;;;10370027;28;20117;-53
2023/08/01 00:57:06;;;;;;;1.83;1.10;;;20.60;73.50;;;;;;10369834;28;20092;-54
2023/08/01 01:02:07;;;;;;;2.00;1.00;;;20.60;73.60;;;;;;10370216;28;20026;-54
2023/08/01 01:07:08;;;;;;;2.28;1.20;;;20.50;73.40;;;;;;10367587;28;20026;-53
2023/08/01 01:12:09;;;;;;;1.73;1.00;;;20.60;73.60;;;;;;10355243;28;20405;-52
2023/08/01 01:17:09;;;;;;;1.83;1.30;;;20.50;73.50;;;;;;10357756;28;20033;-54
2023/08/01 01:22:11;;;;;;;1.65;1.10;;;20.50;73.50;;;;;;10368899;28;20114;-54
2023/08/01 01:27:12;;;;;;;2.33;1.30;;;20.50;73.50;;;;;;10368256;28;20028;-54
2023/08/01 01:32:13;;;;;;;1.90;1.40;;;20.50;73.50;;;;;;10368798;28;20026;-53
2023/08/01 01:37:14;;;;;;;2.17;1.00;;;20.50;73.50;;;;;;10366717;28;20088;-54
2023/08/01 01:42:15;;;;;;;2.10;1.38;;;20.50;73.50;;;;;;10367465;28;20137;-53
2023/08/01 01:47:18;;;;;;;2.00;1.30;;;20.50;73.50;;;;;;10366466;28;20025;-52
2023/08/01 01:52:18;;;;;;;2.45;1.83;;;20.50;73.40;;;;;;10367370;28;20606;-53
2023/08/01 01:57:19;;;;;;;1.52;0.90;;;20.50;73.40;;;;;;10367194;28;20033;-52
2023/08/01 02:02:20;;;;;;;1.63;1.00;;;20.50;73.50;;;;;;10366935;28;20097;-53
2023/08/01 02:07:20;;;;;;;2.17;1.38;;;20.50;73.50;;;;;;10366505;28;20026;-53
2023/08/01 02:12:21;;;;;;;2.38;1.00;;;20.50;73.40;;;;;;10336403;28;20382;-54
2023/08/01 02:17:22;;;;;;;2.67;1.25;;;20.50;73.50;;;;;;10356382;28;20397;-53
2023/08/01 02:22:25;;;;;;;2.25;1.08;;;20.50;73.40;;;;;;10365857;28;20033;-53
2023/08/01 02:27:25;;;;;;;2.20;1.00;;;20.40;73.40;;;;;;10366088;28;20021;-54
2023/08/01 02:32:26;;;;;;;1.98;1.33;;;20.50;73.50;;;;;;10365471;28;20113;-53
2023/08/01 02:37:27;;;;;;;1.77;1.20;;;20.50;73.50;;;;;;10364064;28;20492;-52
2023/08/01 02:42:27;;;;;;;2.72;1.73;;;20.50;73.40;;;;;;10365315;28;20042;-53
2023/08/01 02:47:28;;;;;;;2.72;1.23;;;20.50;73.90;;;;;;10365375;28;20022;-51
2023/08/01 02:52:29;;;;;;;3.00;1.58;;;20.40;73.40;;;;;;10365538;28;20022;-53
2023/08/01 02:57:29;;;;;;;2.92;1.50;;;20.40;73.40;;;;;;10363474;28;20192;-53
2023/08/01 03:02:30;;;;;;;2.38;1.15;;;20.40;73.40;;;;;;10363880;28;20091;-53
2023/08/01 03:07:31;;;;;;;1.63;1.20;;;20.50;73.40;;;;;;10364436;28;20021;-53
2023/08/01 03:12:31;;;;;;;2.53;1.40;;;20.40;73.40;;;;;;10332942;28;20110;-51
2023/08/01 03:17:32;;;;;;;5.13;1.60;;;20.40;73.40;;;;;;10356551;28;20085;-53
2023/08/01 03:22:33;;;;;;;2.28;1.15;;;20.40;73.40;;;;;;10364260;28;20109;-52
2023/08/01 03:27:36;;;;;;;2.97;1.35;;;20.40;73.40;;;;;;10362832;28;20022;-53
2023/08/01 03:32:37;;;;;;;3.58;1.30;;;20.40;73.50;;;;;;10362290;28;20033;-53
2023/08/01 03:37:38;;;;;;;2.03;1.13;;;20.40;73.50;;;;;;10362942;28;20036;-58
2023/08/01 03:42:38;;;;;;;2.97;1.25;;;20.40;73.80;;;;;;10361038;28;20058;-53
2023/08/01 03:47:39;;;;;;;3.05;1.23;;;20.40;73.30;;;;;;10355114;28;20389;-53
2023/08/01 03:52:40;;;;;;;2.63;1.30;;;20.50;74.20;;;;;;10355362;28;20168;-55
2023/08/01 03:57:42;;;;;;;4.18;1.10;;;20.50;74.00;;;;;;10356635;28;20027;-54
2023/08/01 04:02:43;;;;;;;5.20;1.33;;;20.50;73.60;;;;;;10367010;28;20338;-54
2023/08/01 04:07:44;;;;;;;4.88;1.85;;;20.50;74.00;;;;;;10360315;28;20105;-53
2023/08/01 04:12:45;;;;;;;2.15;1.17;;;20.60;74.00;;;;;;10354857;28;20169;-55
2023/08/01 04:17:47;;;;;;;2.33;1.45;;;20.50;73.80;;;;;;10360252;28;20121;-54
2023/08/01 04:22:48;;;;;;;3.42;1.20;;;20.50;73.70;;;;;;10351404;28;20011;-55
2023/08/01 04:27:48;;;;;;;3.17;2.03;;;20.50;73.50;;;;;;10321134;28;20030;-54
2023/08/01 04:32:49;;;;;;;3.60;1.30;;;20.50;73.20;;;;;;10321088;28;20177;-54
2023/08/01 04:37:50;;;;;;;3.42;1.65;;;20.40;73.00;;;;;;10324320;28;20626;-54
2023/08/01 04:42:51;;;;;;;4.90;1.65;;;20.40;73.10;;;;;;10331399;28;20073;-55
2023/08/01 04:47:52;;;;;;;5.80;1.20;;;20.40;73.10;;;;;;10327249;28;20062;-54
2023/08/01 04:52:52;;;;;;;4.68;1.77;;;20.40;73.20;;;;;;10334898;28;20257;-54
2023/08/01 04:57:53;;;;;;;2.33;1.25;;;20.40;73.20;;;;;;10333446;28;20034;-53
2023/08/01 05:02:54;;;;;;;4.05;1.30;;;20.40;73.20;;;;;;10340656;28;20405;-54
2023/08/01 05:07:54;;;;;;;3.33;1.45;;;20.40;73.10;;;;;;10336208;28;20716;-54
2023/08/01 05:12:55;;;;;;;2.30;1.33;;;20.40;73.10;;;;;;10334602;28;20436;-54
2023/08/01 05:17:56;;;;;;;3.13;1.33;;;20.40;73.10;;;;;;10341974;28;20073;-53
2023/08/01 05:22:58;;;;;;;3.95;1.70;;;20.40;73.00;;;;;;10334166;28;20046;-53
2023/08/01 05:27:58;;;;;;;3.28;1.27;;;20.40;73.00;;;;;;10327368;28;20026;-52
2023/08/01 05:33:00;;;;;;;4.32;1.40;;;20.40;73.40;;;;;;10326285;28;20588;-56
2023/08/01 05:38:01;;;;;;;4.35;1.63;;;20.40;73.30;;;;;;10326698;28;20285;-54
2023/08/01 05:43:03;;;;;;;4.15;1.65;;;20.50;74.00;;;;;;10333149;28;20081;-55
2023/08/01 05:48:04;;;;;;;6.10;2.10;;;20.60;74.30;;;;;;10326316;28;20777;-55
2023/08/01 05:53:06;;;;;;;8.07;2.03;;;20.70;74.20;;;;;;10324229;28;20080;-55
2023/08/01 05:58:06;;;;;;;6.38;2.25;;;20.70;74.40;;;;;;10324172;28;20038;-55
2023/08/01 06:03:07;;;;;;;6.20;1.88;;;20.70;74.20;;;;;;10329047;28;20018;-55
2023/08/01 06:08:08;;;;;;;10.13;2.42;;;20.70;74.00;;;;;;10358238;28;20109;-55
2023/08/01 06:13:09;;;;;;;8.30;3.10;;;20.70;73.90;;;;;;10330748;28;20033;-55
2023/08/01 06:18:11;;;;;;;11.95;3.13;;;20.70;74.00;;;;;;10363788;28;20037;-54
2023/08/01 06:23:12;;;;;;;28.00;3.95;;;20.70;74.20;;;;;;10357037;28;20022;-53
2023/08/01 06:28:12;;;;;;;31.25;4.82;;;20.70;74.20;;;;;;10360600;28;20064;-54
2023/08/01 06:33:13;;;;;;;26.98;4.15;;;20.60;74.10;;;;;;10344461;28;20104;-54
2023/08/01 06:38:14;;;;;;;18.60;3.13;;;20.70;74.30;;;;;;10335335;28;20022;-55
2023/08/01 06:43:14;;;;;;;18.13;3.53;;;20.60;74.60;;;;;;10323198;28;20070;-55
2023/08/01 06:48:15;;;;;;;22.05;4.35;;;20.70;74.70;;;;;;10323092;28;20184;-54
2023/08/01 06:53:15;;;;;;;7.28;2.80;;;20.70;74.50;;;;;;10323531;28;20501;-54
2023/08/01 06:58:16;;;;;;;15.70;4.25;;;20.70;74.40;;;;;;10322405;28;20058;-55
2023/08/01 07:03:17;;;;;;;13.20;3.50;;;20.70;74.30;;;;;;10322450;28;20061;-54
2023/08/01 07:08:17;;;;;;;15.35;3.03;;;20.80;74.00;;;;;;10332506;28;20113;-55
2023/08/01 07:13:19;;;;;;;11.35;3.85;;;20.70;74.00;;;;;;10324899;28;20494;-54
2023/08/01 07:18:20;;;;;;;17.00;4.55;;;20.70;74.20;;;;;;10361815;28;20030;-53
2023/08/01 07:23:20;;;;;;;8.20;4.00;;;20.70;74.30;;;;;;10362588;28;20058;-54
2023/08/01 07:28:21;;;;;;;10.77;4.05;;;20.60;74.30;;;;;;10362222;28;20025;-54
2023/08/01 07:33:22;;;;;;;18.80;3.70;;;20.70;74.30;;;;;;10361941;28;20018;-54
2023/08/01 07:38:23;;;;;;;14.43;4.50;;;20.70;74.20;;;;;;10360750;28;20525;-55
2023/08/01 07:43:25;;;;;;;13.50;3.75;;;20.70;74.20;;;;;;10361732;28;20100;-54
2023/08/01 07:48:26;;;;;;;9.27;3.50;;;20.70;74.10;;;;;;10360950;28;20056;-55
2023/08/01 07:53:27;;;;;;;7.05;3.17;;;20.70;74.00;;;;;;10361919;28;20121;-53
2023/08/01 07:58:29;;;;;;;6.10;2.85;;;20.70;73.90;;;;;;10362321;28;20371;-56
2023/08/01 08:03:30;;;;;;;9.40;3.47;;;20.70;74.00;;;;;;10361894;28;20141;-57
2023/08/01 08:08:33;;;;;;;6.65;2.80;;;20.70;73.90;;;;;;10361083;28;20038;-56
2023/08/01 08:13:34;;;;;;;6.78;2.58;;;20.70;74.20;;;;;;10348410;28;20104;-56
2023/08/01 08:18:34;;;;;;;10.55;3.58;;;20.60;74.30;;;;;;10363545;28;20119;-56
2023/08/01 08:23:35;;;;;;;8.90;3.20;;;20.60;74.20;;;;;;10370096;28;20029;-56
2023/08/01 08:28:36;;;;;;;8.80;2.75;;;20.80;74.80;;;;;;10341014;28;20065;-55
2023/08/01 08:33:37;;;;;;;12.02;3.50;;;20.90;74.70;;;;;;10330110;28;20027;-56
2023/08/01 08:38:38;;;;;;;95.72;51.00;;;20.90;74.50;;;;;;10330043;28;20515;-56
2023/08/01 08:43:41;;;;;;;19.13;7.43;;;21.00;74.50;;;;;;10314272;28;20056;-56
2023/08/01 08:48:42;;;;;;;18.63;5.15;;;21.00;74.50;;;;;;10360048;28;20018;-57
2023/08/01 08:53:46;;;;;;;11.32;3.78;;;21.00;74.40;;;;;;10329759;28;20077;-55
2023/08/01 08:58:49;;;;;;;8.45;4.15;;;21.10;74.10;;;;;;10328370;28;20054;-55
2023/08/01 09:03:49;;;;;;;5.95;3.50;;;21.10;73.90;;;;;;10348011;28;20044;-55
2023/08/01 09:09:01;;;;;;;6.47;3.13;;;21.10;73.90;;;;;;10383854;28;20018;-55
2023/08/01 09:14:02;;;;;;;7.70;3.42;;;21.20;73.50;;;;;;10360760;28;20027;-56
2023/08/01 09:19:02;;;;;;;9.70;4.10;;;21.20;75.00;;;;;;10318829;28;20058;-55
2023/08/01 09:24:20;;;;;;;8.32;2.90;;;21.30;74.40;;;;;;10349452;28;20019;-55
2023/08/01 09:29:21;;;;;;;5.97;2.63;;;21.30;73.90;;;;;;10328628;28;20122;-57
2023/08/01 09:34:24;;;;;;;7.90;2.60;;;21.40;73.80;;;;;;10352119;28;20018;-55
2023/08/01 09:39:25;;;;;;;7.53;2.35;;;21.40;74.50;;;;;;10328289;28;20125;-55
2023/08/01 09:44:28;;;;;;;10.32;3.03;;;21.70;75.70;;;;;;10327578;28;20627;-55
2023/08/01 09:49:30;;;;;;;8.07;2.83;;;21.80;74.70;;;;;;10360441;28;20588;-54
2023/08/01 09:54:31;;;;;;;7.40;2.70;;;21.70;74.10;;;;;;10350432;28;20034;-56
2023/08/01 09:59:32;;;;;;;11.73;3.15;;;21.80;74.30;;;;;;10326881;28;20031;-56
2023/08/01 10:04:36;;;;;;;10.05;3.25;;;22.10;74.40;;;;;;10325638;28;20109;-56
2023/08/01 10:09:37;;;;;;;10.80;3.40;;;22.00;74.60;;;;;;10323836;28;20138;-56
2023/08/01 10:14:39;;;;;;;10.10;4.78;;;22.10;75.70;;;;;;10338234;28;20541;-55
2023/08/01 10:19:42;;;;;;;6.30;3.17;;;22.20;75.70;;;;;;10365737;28;20040;-56
2023/08/01 10:24:43;;;;;;;7.60;3.35;;;22.20;74.50;;;;;;10366640;28;20014;-57
2023/08/01 10:29:46;;;;;;;11.02;3.40;;;22.10;74.40;;;;;;10341955;28;20050;-55
2023/08/01 10:34:52;;;;;;;16.60;4.85;;;22.00;75.00;;;;;;10353192;28;20531;-56
2023/08/01 10:39:58;;;;;;;11.27;3.05;;;21.90;75.00;;;;;;10365106;28;20129;-55
2023/08/01 10:44:59;;;;;;;8.95;3.10;;;21.90;75.10;;;;;;10362586;28;20083;-55
2023/08/01 10:49:59;;;;;;;9.80;3.35;;;21.80;74.70;;;;;;10332868;28;20432;-55
2023/08/01 10:55:07;;;;;;;6.80;2.53;;;21.80;75.00;;;;;;10325261;28;20054;-55
2023/08/01 11:00:09;;;;;;;9.35;3.78;;;21.90;74.70;;;;;;10335776;28;20043;-55
2023/08/01 11:05:11;;;;;;;12.07;3.33;;;21.90;74.60;;;;;;10308537;28;20023;-55
2023/08/01 11:10:13;;;;;;;16.98;3.22;;;21.90;74.30;;;;;;10355530;28;20030;-59
2023/08/01 11:15:14;;;;;;;10.43;2.67;;;21.70;74.40;;;;;;10357557;28;20030;-55
2023/08/01 11:20:17;;;;;;;7.53;2.42;;;21.60;74.50;;;;;;10311900;28;20417;-55
2023/08/01 11:25:18;;;;;;;8.98;2.95;;;21.60;74.40;;;;;;10334183;28;20165;-54
2023/08/01 11:30:19;;;;;;;6.32;2.47;;;21.60;74.40;;;;;;10321332;28;20022;-56
2023/08/01 11:35:19;;;;;;;7.15;2.80;;;21.60;74.10;;;;;;10347275;28;20161;-56
2023/08/01 11:40:20;;;;;;;6.47;2.35;;;21.50;74.10;;;;;;10320591;28;20516;-54
2023/08/01 11:45:21;;;;;;;6.70;2.38;;;21.50;74.00;;;;;;10301996;28;20038;-56
2023/08/01 11:50:23;;;;;;;5.30;2.33;;;21.50;73.80;;;;;;10330894;28;20054;-56
2023/08/01 11:55:27;;;;;;;4.97;2.17;;;21.50;74.00;;;;;;10325402;28;20327;-55
2023/08/01 12:00:29;;;;;;;5.95;2.58;;;21.50;73.90;;;;;;10332675;28;20034;-56
2023/08/01 12:05:30;;;;;;;4.95;2.25;;;21.50;73.60;;;;;;10329006;28;20018;-55
2023/08/01 12:10:42;;;;;;;3.55;2.03;;;21.50;74.40;;;;;;10341673;28;20022;-56
2023/08/01 12:15:43;;;;;;;5.13;2.10;;;21.60;73.70;;;;;;10347493;28;20030;-56
2023/08/01 12:20:43;;;;;;;4.28;2.13;;;21.50;73.60;;;;;;10369356;28;20125;-53
2023/08/01 12:25:46;;;;;;;5.78;3.30;;;21.50;73.70;;;;;;10369142;28;20062;-54
2023/08/01 12:30:46;;;;;;;6.22;2.17;;;21.50;73.70;;;;;;10369329;28;20026;-54
2023/08/01 12:35:47;;;;;;;6.30;2.17;;;21.50;73.70;;;;;;10369078;28;20246;-56
2023/08/01 12:40:48;;;;;;;6.03;2.03;;;21.50;73.70;;;;;;10368544;28;20488;-56
2023/08/01 12:45:49;;;;;;;5.28;1.98;;;21.40;73.60;;;;;;10368332;28;20488;-55
2023/08/01 12:50:50;;;;;;;3.85;2.00;;;21.40;73.50;;;;;;10368414;28;20028;-56
2023/08/01 12:55:51;;;;;;;6.88;2.15;;;21.50;73.50;;;;;;10368064;28;20029;-56
2023/08/01 13:00:53;;;;;;;2.90;1.70;;;21.40;73.50;;;;;;10333767;28;20100;-56
2023/08/01 13:05:54;;;;;;;3.78;2.08;;;21.40;73.30;;;;;;10330887;28;20170;-54
2023/08/01 13:10:54;;;;;;;7.85;2.20;;;21.40;73.30;;;;;;10339665;28;20054;-55
2023/08/01 13:15:57;;;;;;;3.42;1.83;;;21.40;73.20;;;;;;10345156;28;20058;-56
2023/08/01 13:20:59;;;;;;;3.92;1.67;;;21.40;73.00;;;;;;10330718;28;20123;-56
2023/08/01 13:26:02;;;;;;;3.78;1.90;;;21.50;72.80;;;;;;10328073;28;20026;-56
2023/08/01 13:31:02;;;;;;;4.90;2.35;;;21.50;72.70;;;;;;10333251;28;20481;-55
2023/08/01 13:36:03;;;;;;;3.40;1.75;;;21.40;72.60;;;;;;10349255;28;20033;-55
2023/08/01 13:41:04;;;;;;;8.13;2.35;;;21.40;72.50;;;;;;10356851;28;20043;-55
2023/08/01 13:46:16;;;;;;;6.82;2.20;;;21.60;72.50;;;;;;10352570;28;20046;-55
2023/08/01 13:51:17;;;;;;;7.85;2.95;;;21.60;72.30;;;;;;10362396;28;20023;-55
2023/08/01 13:56:18;;;;;;;8.55;2.03;;;21.70;72.40;;;;;;10367993;28;20017;-56
2023/08/01 14:01:18;;;;;;;7.05;2.22;;;21.60;72.60;;;;;;10364750;28;20112;-56
2023/08/01 14:06:19;;;;;;;12.70;3.20;;;21.50;72.80;;;;;;10359008;28;20238;-55
2023/08/01 14:11:20;;;;;;;10.65;2.75;;;21.50;72.70;;;;;;10361541;28;20496;-57
2023/08/01 14:16:21;;;;;;;20.33;3.30;;;21.50;72.90;;;;;;10351728;28;20081;-56
2023/08/01 14:21:21;;;;;;;16.00;3.70;;;21.50;73.00;;;;;;10363045;28;20377;-55
2023/08/01 14:26:22;;;;;;;15.48;3.88;;;21.50;73.20;;;;;;10337972;28;20018;-55
2023/08/01 14:31:25;;;;;;;18.05;3.13;;;21.60;73.10;;;;;;10363358;28;20018;-56
2023/08/01 14:36:25;;;;;;;23.30;3.08;;;21.60;72.80;;;;;;10366211;28;20054;-56
2023/08/01 14:41:26;;;;;;;14.98;3.55;;;21.70;72.50;;;;;;10366220;28;20157;-57
2023/08/01 14:46:27;;;;;;;11.70;3.58;;;21.70;72.30;;;;;;10366241;28;20018;-58
2023/08/01 14:51:27;;;;;;;16.55;3.30;;;21.70;72.50;;;;;;10360860;28;20116;-56
2023/08/01 14:56:29;;;;;;;17.45;3.17;;;21.70;72.00;;;;;;10325125;28;20036;-55
2023/08/01 15:01:30;;;;;;;13.73;3.05;;;21.70;72.10;;;;;;10342856;28;20096;-56
2023/08/01 15:06:30;;;;;;;7.70;2.38;;;21.70;72.50;;;;;;10364214;28;20205;-55
2023/08/01 15:11:31;;;;;;;12.55;2.85;;;21.80;72.40;;;;;;10360747;28;20030;-57
2023/08/01 15:16:32;;;;;;;12.02;2.67;;;21.80;72.40;;;;;;10348781;28;20116;-55
2023/08/01 15:21:32;;;;;;;13.80;3.00;;;21.70;72.60;;;;;;10323016;28;20042;-55
2023/08/01 15:26:33;;;;;;;9.63;2.78;;;21.80;72.60;;;;;;10323982;28;20074;-57
2023/08/01 15:31:35;;;;;;;13.43;2.75;;;21.80;72.90;;;;;;10323733;28;20541;-57
2023/08/01 15:36:36;;;;;;;8.90;2.53;;;21.80;72.10;;;;;;10324610;28;20474;-56
2023/08/01 15:41:37;;;;;;;21.95;12.60;;;21.70;71.70;;;;;;10324043;28;20046;-58
2023/08/01 15:46:37;;;;;;;19.05;8.05;;;21.70;71.00;;;;;;10324143;28;20097;-56
2023/08/01 15:51:38;;;;;;;19.63;6.30;;;21.70;71.90;;;;;;10355220;28;20565;-56
2023/08/01 15:56:41;;;;;;;18.35;6.07;;;21.80;71.40;;;;;;10353381;28;20560;-55
2023/08/01 16:01:42;;;;;;;15.68;4.78;;;21.80;73.30;;;;;;10363923;28;20117;-55
2023/08/01 16:06:42;;;;;;;13.32;4.65;;;21.90;72.90;;;;;;10363929;28;20018;-55
2023/08/01 16:11:43;;;;;;;10.18;4.13;;;21.90;72.80;;;;;;10345470;28;20120;-53
2023/08/01 16:16:44;;;;;;;17.95;5.15;;;21.90;72.50;;;;;;10354902;28;20030;-55
2023/08/01 16:21:45;;;;;;;15.55;4.22;;;21.80;72.70;;;;;;10363247;28;20010;-55
2023/08/01 16:26:45;;;;;;;15.30;3.92;;;21.70;72.90;;;;;;10363602;28;20022;-56
2023/08/01 16:31:46;;;;;;;14.52;3.35;;;21.70;73.10;;;;;;10359215;28;20110;-55
2023/08/01 16:36:47;;;;;;;12.35;4.30;;;21.70;73.30;;;;;;10323823;28;20037;-56
2023/08/01 16:41:47;;;;;;;13.77;3.80;;;21.70;73.40;;;;;;10354258;28;20616;-55
2023/08/01 16:46:48;;;;;;;16.63;4.75;;;21.70;73.40;;;;;;10361815;28;20038;-54
2023/08/01 16:51:49;;;;;;;15.48;3.78;;;21.60;73.60;;;;;;10360488;28;20101;-54
2023/08/01 16:56:49;;;;;;;12.73;3.83;;;21.50;73.90;;;;;;10346261;28;20041;-54
2023/08/01 17:01:50;;;;;;;11.73;4.13;;;21.60;73.90;;;;;;10358415;28;20015;-54
2023/08/01 17:06:51;;;;;;;19.00;4.57;;;21.60;73.60;;;;;;10343501;28;20109;-54
2023/08/01 17:11:51;;;;;;;14.95;4.55;;;21.60;73.80;;;;;;10354822;28;20616;-54
2023/08/01 17:16:52;;;;;;;11.82;4.03;;;21.60;74.20;;;;;;10350648;28;20053;-55
2023/08/01 17:21:53;;;;;;;13.63;3.65;;;21.60;74.40;;;;;;10339911;28;20050;-54
2023/08/01 17:26:53;;;;;;;15.43;3.80;;;21.50;74.20;;;;;;10359555;28;20220;-53
2023/08/01 17:31:54;;;;;;;10.85;2.92;;;21.50;74.40;;;;;;10351238;28;20124;-54
2023/08/01 17:36:55;;;;;;;12.60;3.67;;;21.50;74.40;;;;;;10339286;28;20480;-54
2023/08/01 17:42:00;;;;;;;8.10;3.30;;;21.50;74.30;;;;;;10335203;28;20141;-54
2023/08/01 17:47:00;;;;;;;7.07;2.70;;;21.40;74.20;;;;;;10342173;28;20030;-55
2023/08/01 17:52:01;;;;;;;14.07;3.65;;;21.50;74.10;;;;;;10357494;28;20014;-53
2023/08/01 17:57:02;;;;;;;15.75;4.65;;;21.60;73.70;;;;;;10344245;28;20030;-54
2023/08/01 18:02:05;;;;;;;10.10;3.53;;;21.50;74.10;;;;;;10337918;28;20024;-53
2023/08/01 18:07:06;;;;;;;11.90;3.40;;;21.40;74.30;;;;;;10340398;28;20031;-56
2023/08/01 18:12:07;;;;;;;7.63;3.20;;;21.40;74.00;;;;;;10362374;28;20021;-53
2023/08/01 18:17:07;;;;;;;9.95;3.28;;;21.40;73.80;;;;;;10334732;28;20167;-54
2023/08/01 18:22:08;;;;;;;12.00;3.50;;;21.40;73.70;;;;;;10355492;28;20259;-54
2023/08/01 18:27:09;;;;;;;7.38;2.85;;;21.40;73.70;;;;;;10336178;28;20029;-54
2023/08/01 18:32:09;;;;;;;7.38;2.85;;;21.40;73.70;;;;;;10355794;28;20225;-54
2023/08/01 18:37:10;;;;;;;7.43;2.72;;;21.40;73.70;;;;;;10358259;28;20053;-54
2023/08/01 18:42:11;;;;;;;5.18;2.40;;;21.40;73.60;;;;;;10353298;28;20042;-54
2023/08/01 18:47:12;;;;;;;10.60;4.57;;;21.30;73.60;;;;;;10363592;28;20014;-54
2023/08/01 18:52:13;;;;;;;6.65;3.05;;;21.30;73.70;;;;;;10341205;28;20037;-53
2023/08/01 18:57:13;;;;;;;5.75;2.55;;;21.30;73.70;;;;;;10354912;28;20026;-54
2023/08/01 19:02:14;;;;;;;7.15;3.05;;;21.30;73.80;;;;;;10340161;28;20026;-53
2023/08/01 19:07:15;;;;;;;6.82;2.50;;;21.30;73.70;;;;;;10352646;28;20014;-54
2023/08/01 19:12:15;;;;;;;7.25;3.00;;;21.30;73.80;;;;;;10362633;28;20169;-56
2023/08/01 19:17:16;;;;;;;5.88;2.42;;;21.20;74.00;;;;;;10363931;28;20137;-56
2023/08/01 19:22:17;;;;;;;14.88;3.55;;;21.20;73.60;;;;;;10363990;28;20465;-56
2023/08/01 19:27:17;;;;;;;5.60;2.22;;;21.30;74.50;;;;;;10365208;28;20101;-57
2023/08/01 19:32:19;;;;;;;5.60;2.63;;;21.30;74.00;;;;;;10376096;28;20030;-54
2023/08/01 19:37:20;;;;;;;4.80;2.10;;;21.30;74.00;;;;;;10353510;28;20034;-54
2023/08/01 19:42:21;;;;;;;6.13;2.70;;;21.30;73.90;;;;;;10325355;28;20099;-55
2023/08/01 19:47:21;;;;;;;6.60;2.20;;;21.30;73.70;;;;;;10360846;28;20030;-53
2023/08/01 19:52:22;;;;;;;5.30;2.13;;;21.30;73.90;;;;;;10359731;28;20280;-53
2023/08/01 19:57:23;;;;;;;5.97;2.22;;;21.20;73.90;;;;;;10360108;28;20075;-53
2023/08/01 20:02:23;;;;;;;5.97;2.50;;;21.20;73.80;;;;;;10358271;28;20456;-55
2023/08/01 20:07:24;;;;;;;6.32;2.65;;;21.20;73.80;;;;;;10356463;28;20473;-54
2023/08/01 20:12:25;;;;;;;4.35;2.15;;;21.20;73.80;;;;;;10355407;28;20386;-54
2023/08/01 20:17:25;;;;;;;4.90;2.30;;;21.20;73.80;;;;;;10358122;28;20604;-53
2023/08/01 20:22:28;;;;;;;3.80;2.42;;;21.20;73.80;;;;;;10364314;28;20116;-53
2023/08/01 20:27:29;;;;;;;6.97;2.15;;;21.10;73.70;;;;;;10342294;28;20023;-54
2023/08/01 20:32:29;;;;;;;4.68;2.30;;;21.10;73.70;;;;;;10327445;28;20026;-55
2023/08/01 20:37:31;;;;;;;4.05;2.42;;;21.10;73.70;;;;;;10327039;28;20117;-54
2023/08/01 20:42:32;;;;;;;4.05;2.60;;;21.20;73.70;;;;;;10327058;28;20054;-54
2023/08/01 20:47:33;;;;;;;5.00;2.08;;;21.10;73.70;;;;;;10326359;28;20081;-54
2023/08/01 20:52:34;;;;;;;3.88;1.90;;;21.10;73.60;;;;;;10326745;28;20098;-55
2023/08/01 20:57:35;;;;;;;6.60;1.70;;;21.10;73.60;;;;;;10325189;28;20521;-55
2023/08/01 21:02:35;;;;;;;2.85;1.80;;;21.10;73.60;;;;;;10324843;28;20022;-54
2023/08/01 21:07:36;;;;;;;3.60;1.60;;;21.10;73.60;;;;;;10330665;28;20116;-54
2023/08/01 21:12:37;;;;;;;5.95;1.42;;;21.10;73.60;;;;;;10334605;28;20454;-53
2023/08/01 21:17:37;;;;;;;3.60;1.77;;;21.10;73.60;;;;;;10358886;28;20671;-54
2023/08/01 21:22:38;;;;;;;3.95;1.63;;;21.10;73.60;;;;;;10364425;28;20533;-53
2023/08/01 21:27:39;;;;;;;2.10;1.48;;;21.10;73.60;;;;;;10365221;28;20395;-54
2023/08/01 21:32:40;;;;;;;3.13;1.48;;;21.10;73.50;;;;;;10344875;28;20113;-54
2023/08/01 21:37:40;;;;;;;4.03;1.65;;;21.00;73.50;;;;;;10325282;28;20121;-53
2023/08/01 21:42:41;;;;;;;4.63;1.63;;;21.00;73.50;;;;;;10325039;28;20049;-54
2023/08/01 21:47:42;;;;;;;3.80;1.98;;;21.00;73.30;;;;;;10325116;28;20096;-54
2023/08/01 21:52:42;;;;;;;3.95;1.58;;;21.00;73.30;;;;;;10324180;28;20639;-54
2023/08/01 21:57:43;;;;;;;4.95;1.83;;;21.00;73.20;;;;;;10324730;28;20031;-51
2023/08/01 22:02:44;;;;;;;2.97;1.60;;;21.00;73.20;;;;;;10323949;28;20037;-54
2023/08/01 22:07:44;;;;;;;4.53;1.48;;;21.00;73.10;;;;;;10330585;28;20026;-54
2023/08/01 22:12:45;;;;;;;3.17;1.50;;;21.00;73.10;;;;;;10330772;28;20081;-54
2023/08/01 22:17:46;;;;;;;3.95;1.80;;;21.00;73.10;;;;;;10357588;28;20125;-53
2023/08/01 22:22:48;;;;;;;4.18;1.70;;;21.00;73.10;;;;;;10363420;28;20045;-54
2023/08/01 22:27:50;;;;;;;3.95;2.05;;;21.00;73.10;;;;;;10363271;28;20072;-54
2023/08/01 22:32:51;;;;;;;3.30;1.48;;;21.00;73.00;;;;;;10363514;28;20033;-54
2023/08/01 22:37:52;;;;;;;2.83;1.75;;;21.00;73.00;;;;;;10377998;28;20137;-53
2023/08/01 22:42:52;;;;;;;4.47;2.53;;;20.90;72.90;;;;;;10362736;28;20124;-53
2023/08/01 22:47:53;;;;;;;4.10;1.50;;;20.90;72.90;;;;;;10363245;28;20097;-53
2023/08/01 22:52:54;;;;;;;4.40;2.22;;;20.90;72.90;;;;;;10361410;28;20588;-54
2023/08/01 22:57:54;;;;;;;2.60;1.20;;;21.00;72.90;;;;;;10360697;28;20477;-53
2023/08/01 23:02:55;;;;;;;3.05;2.20;;;21.00;73.00;;;;;;10363355;28;20070;-54
2023/08/01 23:07:57;;;;;;;3.28;2.00;;;20.90;72.90;;;;;;10361381;28;20072;-55
2023/08/01 23:12:57;;;;;;;3.22;1.58;;;20.90;72.90;;;;;;10326106;28;20026;-53
2023/08/01 23:17:58;;;;;;;3.10;1.70;;;20.90;72.90;;;;;;10357865;28;20062;-53
2023/08/01 23:22:59;;;;;;;3.40;2.28;;;20.90;72.80;;;;;;10361811;28;20045;-54
2023/08/01 23:27:59;;;;;;;3.63;1.45;;;20.90;72.70;;;;;;10362366;28;20053;-53
2023/08/01 23:33:02;;;;;;;8.25;3.10;;;20.90;72.60;;;;;;10361327;28;20033;-54
2023/08/01 23:38:03;;;;;;;4.78;2.17;;;20.90;72.50;;;;;;10361443;28;20030;-54
2023/08/01 23:43:03;;;;;;;3.75;1.88;;;20.90;72.50;;;;;;10360745;28;20155;-54
2023/08/01 23:48:04;;;;;;;4.57;1.95;;;20.80;72.50;;;;;;10359688;28;20298;-54
2023/08/01 23:53:05;;;;;;;2.30;1.75;;;20.90;72.50;;;;;;10367558;28;20469;-54
2023/08/01 23:58:06;;;;;;;4.15;1.75;;;20.80;72.40;;;;;;10370539;28;20113;-53
